Time;durP1;ratioP1;P1;durP2;ratioP2;P2;SDS_P1;SDS_P2;PMS_P1;PMS_P2;Temp;Humidity;BMP_temperature;BMP_pressure;BME280_temperature;BME280_humidity;BME280_pressure;Samples;Min_cycle;Max_cycle;Signal;HPM_P1;HPM_P2
2023/04/03 00:01:52;;;;;;;8.03;4.73;;;;;;;1.31;92.15;102769.63;5263267;28;20393;-69
2023/04/03 00:04:24;;;;;;;11.93;6.93;;;;;;;1.34;93.44;102769.81;5263191;28;20064;-69
2023/04/03 00:06:55;;;;;;;10.43;5.37;;;;;;;1.28;93.78;102780.59;5262819;28;20032;-70
2023/04/03 00:09:27;;;;;;;9.57;6.43;;;;;;;1.00;93.70;102779.78;5263218;28;20021;-70
2023/04/03 00:11:58;;;;;;;8.67;5.10;;;;;;;0.95;93.97;102778.66;5263025;28;20029;-70
2023/04/03 00:14:30;;;;;;;9.70;5.50;;;;;;;1.01;94.53;102773.88;5263063;28;20452;-70
2023/04/03 00:17:01;;;;;;;9.20;5.60;;;;;;;0.95;94.69;102779.56;5262918;28;20101;-70
2023/04/03 00:19:32;;;;;;;6.47;5.23;;;;;;;1.05;95.32;102776.72;5262715;28;20029;-70
2023/04/03 00:22:04;;;;;;;8.60;5.53;;;;;;;0.99;94.97;102781.50;5261798;28;20021;-70
2023/04/03 00:24:35;;;;;;;7.90;5.43;;;;;;;0.99;95.81;102783.19;5262876;28;20202;-70
2023/04/03 00:27:07;;;;;;;9.90;6.00;;;;;;;0.88;95.84;102787.69;5262900;28;20021;-70
2023/04/03 00:29:38;;;;;;;9.80;5.47;;;;;;;0.82;95.66;102792.44;5262829;28;20040;-69
2023/04/03 00:32:09;;;;;;;7.77;5.60;;;;;;;0.78;96.03;102793.06;5263031;28;20047;-70
2023/04/03 00:34:41;;;;;;;8.00;5.33;;;;;;;0.79;96.26;102787.13;5262691;28;20060;-69
2023/04/03 00:37:12;;;;;;;8.00;6.27;;;;;;;0.77;96.28;102793.84;5262783;28;20021;-70
2023/04/03 00:39:44;;;;;;;9.97;5.43;;;;;;;0.71;96.61;102799.53;5262659;28;20029;-70
2023/04/03 00:42:16;;;;;;;10.90;5.57;;;;;;;0.63;96.30;102798.16;5262714;28;20029;-70
2023/04/03 00:44:47;;;;;;;7.40;5.40;;;;;;;0.63;96.12;102799.06;5262554;28;20025;-70
2023/04/03 00:47:19;;;;;;;7.27;5.53;;;;;;;0.60;96.89;102796.31;5262756;28;20032;-70
2023/04/03 00:49:52;;;;;;;9.70;5.68;;;;;;;0.58;97.34;102800.47;5262061;28;20034;-70
2023/04/03 00:52:29;;;;;;;8.50;5.40;;;;;;;0.44;98.08;102791.03;5263880;28;20021;-71
2023/04/03 00:55:05;;;;;;;9.35;5.68;;;;;;;0.35;97.80;102794.81;5266867;28;20031;-70
2023/04/03 00:57:38;;;;;;;10.18;5.63;;;;;;;0.41;98.29;102793.41;5266935;28;20025;-70
2023/04/03 01:00:13;;;;;;;9.00;5.47;;;;;;;0.29;98.72;102802.13;5266723;28;20033;-70
2023/04/03 01:02:45;;;;;;;8.35;5.25;;;;;;;0.29;98.66;102789.31;5266672;28;20027;-70
2023/04/03 01:05:18;;;;;;;9.60;6.00;;;;;;;0.35;98.96;102806.75;5266633;28;20041;-70
2023/04/03 01:07:52;;;;;;;8.45;5.85;;;;;;;0.22;99.28;102799.97;5266354;28;20387;-70
2023/04/03 01:10:25;;;;;;;9.57;6.03;;;;;;;0.23;99.36;102806.00;5266569;28;20056;-71
2023/04/03 01:12:57;;;;;;;9.27;5.32;;;;;;;0.20;99.85;102803.25;5266362;28;20114;-70
2023/04/03 01:15:34;;;;;;;10.13;5.97;;;;;;;0.15;99.92;102805.53;5266621;28;20067;-70
2023/04/03 01:18:09;;;;;;;9.90;5.43;;;;;;;0.14;100.00;102803.75;5265948;28;20539;-70
2023/04/03 01:20:49;;;;;;;8.00;5.53;;;;;;;0.11;100.00;102814.72;5266377;28;20021;-70
2023/04/03 01:23:33;;;;;;;9.77;6.10;;;;;;;0.02;100.00;102806.44;5266487;28;20458;-70
2023/04/03 01:26:05;;;;;;;8.57;5.45;;;;;;;-0.06;100.00;102805.06;5266332;28;20089;-70
2023/04/03 01:28:36;;;;;;;10.00;5.77;;;;;;;-0.03;100.00;102803.56;5266229;28;20025;-70
2023/04/03 01:31:15;;;;;;;8.93;5.93;;;;;;;-0.05;100.00;102809.38;5266488;28;20354;-70
2023/04/03 01:33:46;;;;;;;8.68;6.55;;;;;;;-0.15;100.00;102807.91;5266072;28;20021;-70
2023/04/03 01:36:24;;;;;;;7.93;5.77;;;;;;;-0.15;100.00;102810.47;5266112;28;20028;-70
2023/04/03 01:38:59;;;;;;;9.85;6.18;;;;;;;-0.16;100.00;102820.63;5266037;28;20056;-69
2023/04/03 01:41:30;;;;;;;9.65;6.50;;;;;;;-0.16;100.00;102824.09;5265673;28;20120;-70
2023/04/03 01:44:03;;;;;;;8.23;6.17;;;;;;;-0.12;100.00;102809.81;5266045;28;20412;-70
2023/04/03 01:46:35;;;;;;;12.60;6.20;;;;;;;-0.21;100.00;102821.25;5265873;28;20029;-70
2023/04/03 01:49:06;;;;;;;9.87;7.00;;;;;;;-0.19;100.00;102806.84;5265509;28;20025;-70
2023/04/03 01:51:38;;;;;;;8.63;6.50;;;;;;;-0.18;100.00;102810.28;5266116;28;20071;-70
2023/04/03 01:54:09;;;;;;;11.40;6.60;;;;;;;-0.31;100.00;102803.47;5265712;28;20037;-70
2023/04/03 01:56:40;;;;;;;12.73;6.90;;;;;;;-0.26;100.00;102811.47;5265728;28;20024;-71
2023/04/03 01:59:12;;;;;;;9.00;6.43;;;;;;;-0.27;100.00;102814.84;5265899;28;20036;-70
2023/04/03 02:01:45;;;;;;;9.20;6.63;;;;;;;-0.27;100.00;102818.28;5265585;28;20021;-71
2023/04/03 02:04:16;;;;;;;9.23;6.25;;;;;;;-0.33;100.00;102812.75;5265586;28;20068;-71
2023/04/03 02:06:48;;;;;;;15.10;6.63;;;;;;;-0.30;100.00;102818.09;5265756;28;20115;-70
2023/04/03 02:09:19;;;;;;;11.67;8.13;;;;;;;-0.28;100.00;102819.06;5265475;28;20104;-70
2023/04/03 02:11:50;;;;;;;10.93;7.07;;;;;;;-0.28;100.00;102813.94;5265455;28;20029;-70
2023/04/03 02:14:23;;;;;;;14.33;7.43;;;;;;;-0.29;100.00;102819.88;5265360;28;20036;-71
2023/04/03 02:16:54;;;;;;;14.43;6.97;;;;;;;-0.26;100.00;102816.59;5265295;28;20364;-71
2023/04/03 02:19:26;;;;;;;9.03;7.00;;;;;;;-0.31;100.00;102820.53;5264879;28;20033;-71
2023/04/03 02:21:57;;;;;;;8.63;7.20;;;;;;;-0.30;100.00;102823.22;5265318;28;20017;-70
2023/04/03 02:24:28;;;;;;;11.43;7.57;;;;;;;-0.33;100.00;102814.44;5265213;28;20110;-71
2023/04/03 02:27:00;;;;;;;13.03;6.60;;;;;;;-0.34;100.00;102812.66;5264878;28;20056;-71
2023/04/03 02:29:31;;;;;;;8.83;6.93;;;;;;;-0.32;100.00;102821.31;5264783;28;20486;-71
2023/04/03 02:32:02;;;;;;;10.37;7.17;;;;;;;-0.33;100.00;102824.69;5264899;28;20368;-71
2023/04/03 02:34:34;;;;;;;9.40;6.47;;;;;;;-0.35;100.00;102824.59;5265017;28;20036;-71
2023/04/03 02:37:06;;;;;;;9.13;6.80;;;;;;;-0.44;100.00;102824.00;5265170;28;20025;-71
2023/04/03 02:39:37;;;;;;;10.87;6.73;;;;;;;-0.40;100.00;102837.09;5264858;28;20036;-71
2023/04/03 02:42:08;;;;;;;8.30;7.10;;;;;;;-0.44;100.00;102837.69;5264873;28;20033;-70
2023/04/03 02:44:40;;;;;;;15.80;6.87;;;;;;;-0.44;100.00;102840.25;5264876;28;20044;-70
2023/04/03 02:47:11;;;;;;;9.93;6.60;;;;;;;-0.47;100.00;102837.47;5264659;28;20060;-71
2023/04/03 02:49:44;;;;;;;10.90;6.90;;;;;;;-0.50;100.00;102831.28;5264321;28;20099;-70
2023/04/03 02:52:16;;;;;;;9.25;6.82;;;;;;;-0.46;100.00;102839.25;5264231;28;20116;-71
2023/04/03 02:54:47;;;;;;;10.17;7.03;;;;;;;-0.55;100.00;102836.09;5264609;28;20435;-70
2023/04/03 02:57:19;;;;;;;10.80;6.97;;;;;;;-0.60;100.00;102843.47;5264536;28;20095;-70
2023/04/03 02:59:51;;;;;;;10.65;6.28;;;;;;;-0.56;100.00;102845.47;5263214;28;20384;-71
2023/04/03 03:02:22;;;;;;;8.63;6.70;;;;;;;-0.59;100.00;102844.38;5264291;28;20032;-71
2023/04/03 03:04:53;;;;;;;10.60;7.53;;;;;;;-0.58;100.00;102838.44;5264542;28;20036;-70
2023/04/03 03:07:25;;;;;;;10.20;6.87;;;;;;;-0.59;100.00;102841.81;5263997;28;20029;-71
2023/04/03 03:09:57;;;;;;;11.80;6.53;;;;;;;-0.59;100.00;102841.81;5262956;28;20387;-71
2023/04/03 03:12:28;;;;;;;11.07;7.10;;;;;;;-0.61;100.00;102838.25;5264258;28;20077;-70
2023/04/03 03:14:59;;;;;;;8.50;6.93;;;;;;;-0.66;100.00;102835.41;5263670;28;20028;-71
2023/04/03 03:17:31;;;;;;;11.40;7.07;;;;;;;-0.63;100.00;102839.81;5263701;28;20140;-71
2023/04/03 03:20:04;;;;;;;13.10;6.83;;;;;;;-0.65;100.00;102837.16;5263963;28;20075;-71
2023/04/03 03:22:35;;;;;;;9.82;6.40;;;;;;;-0.65;100.00;102836.28;5263624;28;20021;-71
2023/04/03 03:25:07;;;;;;;10.47;7.37;;;;;;;-0.68;100.00;102841.19;5263930;28;20124;-71
2023/04/03 03:27:39;;;;;;;12.17;6.37;;;;;;;-0.73;100.00;102841.75;5262709;28;20073;-71
2023/04/03 03:30:11;;;;;;;7.88;6.05;;;;;;;-0.81;100.00;102837.81;5263885;28;20477;-71
2023/04/03 03:32:42;;;;;;;8.50;6.27;;;;;;;-0.78;100.00;102839.69;5262554;28;20025;-71
2023/04/03 03:35:14;;;;;;;10.53;6.73;;;;;;;-0.80;100.00;102843.84;5263477;28;20453;-71
2023/04/03 03:37:45;;;;;;;10.47;5.97;;;;;;;-0.79;100.00;102846.50;5263442;28;20392;-71
2023/04/03 03:40:17;;;;;;;9.60;6.20;;;;;;;-0.81;100.00;102847.19;5263639;28;20037;-70
2023/04/03 03:42:48;;;;;;;7.87;5.70;;;;;;;-0.82;100.00;102853.06;5263657;28;20029;-71
2023/04/03 03:45:19;;;;;;;8.50;5.40;;;;;;;-0.83;100.00;102846.19;5263533;28;20047;-69
2023/04/03 03:47:51;;;;;;;12.73;5.90;;;;;;;-0.88;100.00;102856.13;5263012;28;20040;-69
2023/04/03 03:50:22;;;;;;;9.67;5.57;;;;;;;-0.88;100.00;102865.50;5263384;28;20032;-70
2023/04/03 03:52:53;;;;;;;9.83;5.73;;;;;;;-0.87;100.00;102862.13;5263230;28;20040;-69
2023/04/03 03:55:25;;;;;;;13.57;5.37;;;;;;;-0.97;100.00;102864.06;5263297;28;20103;-69
2023/04/03 03:57:57;;;;;;;8.10;5.63;;;;;;;-0.96;100.00;102857.28;5263208;28;20079;-69
2023/04/03 04:00:28;;;;;;;11.40;5.63;;;;;;;-0.95;100.00;102864.16;5263149;28;20029;-69
2023/04/03 04:03:00;;;;;;;10.17;5.17;;;;;;;-1.01;100.00;102872.31;5263214;28;20096;-69
2023/04/03 04:05:31;;;;;;;9.63;4.90;;;;;;;-1.08;100.00;102862.44;5263149;28;20111;-69
2023/04/03 04:08:03;;;;;;;10.03;5.33;;;;;;;-1.08;100.00;102865.00;5263031;28;20066;-69
2023/04/03 04:10:36;;;;;;;8.80;6.23;;;;;;;-1.08;100.00;102869.25;5263083;28;20128;-69
2023/04/03 04:13:08;;;;;;;7.80;5.25;;;;;;;-1.13;100.00;102868.91;5262676;28;20029;-69
2023/04/03 04:15:40;;;;;;;6.53;4.83;;;;;;;-1.17;100.00;102869.50;5262888;28;20372;-69
2023/04/03 04:18:11;;;;;;;8.00;4.73;;;;;;;-1.14;100.00;102865.47;5262639;28;20045;-69
2023/04/03 04:20:45;;;;;;;6.83;4.53;;;;;;;-1.16;100.00;102872.19;5262860;28;20025;-68
2023/04/03 04:23:17;;;;;;;16.08;5.47;;;;;;;-1.15;100.00;102870.50;5262868;28;20036;-68
2023/04/03 04:25:49;;;;;;;10.32;5.47;;;;;;;-1.20;100.00;102866.75;5262672;28;20032;-68
2023/04/03 04:28:20;;;;;;;9.73;5.40;;;;;;;-1.25;100.00;102866.41;5262159;28;20033;-67
2023/04/03 04:30:52;;;;;;;9.17;4.93;;;;;;;-1.27;100.00;102860.31;5262373;28;20021;-68
2023/04/03 04:33:23;;;;;;;10.03;4.87;;;;;;;-1.24;100.00;102860.53;5262665;28;20029;-68
2023/04/03 04:35:55;;;;;;;8.03;4.50;;;;;;;-1.27;100.00;102862.88;5262610;28;20029;-68
2023/04/03 04:38:26;;;;;;;9.23;4.60;;;;;;;-1.40;100.00;102862.78;5260941;28;20029;-68
2023/04/03 04:40:58;;;;;;;10.03;4.40;;;;;;;-1.33;100.00;102873.56;5262479;28;20057;-68
2023/04/03 04:43:29;;;;;;;9.70;5.50;;;;;;;-1.36;100.00;102862.22;5261228;28;20036;-68
2023/04/03 04:46:10;;;;;;;8.50;5.23;;;;;;;-1.37;100.00;102868.13;5262444;28;20054;-68
2023/04/03 04:48:41;;;;;;;8.38;4.47;;;;;;;-1.40;100.00;102876.50;5262123;28;20032;-68
2023/04/03 04:51:12;;;;;;;6.83;4.10;;;;;;;-1.46;100.00;102870.94;5262408;28;20025;-68
2023/04/03 04:53:44;;;;;;;8.17;4.60;;;;;;;-1.48;100.00;102882.75;5261161;28;20036;-68
2023/04/03 04:56:16;;;;;;;11.73;4.93;;;;;;;-1.44;100.00;102884.72;5262234;28;20032;-69
2023/04/03 04:58:47;;;;;;;11.00;5.03;;;;;;;-1.45;100.00;102885.47;5262786;28;20120;-68
2023/04/03 05:01:19;;;;;;;7.13;4.30;;;;;;;-1.53;100.00;102882.41;5262476;28;20017;-68
2023/04/03 05:03:50;;;;;;;7.87;4.47;;;;;;;-1.48;100.00;102887.84;5262177;28;20043;-68
2023/04/03 05:06:21;;;;;;;6.60;4.20;;;;;;;-1.51;100.00;102893.63;5262260;28;20104;-68
2023/04/03 05:08:53;;;;;;;9.73;5.03;;;;;;;-1.44;100.00;102896.63;5262035;28;20067;-68
2023/04/03 05:11:25;;;;;;;9.93;4.70;;;;;;;-1.44;100.00;102891.50;5262144;28;20400;-68
2023/04/03 05:13:56;;;;;;;7.88;4.65;;;;;;;-1.45;100.00;102889.72;5262010;28;20072;-68
2023/04/03 05:16:28;;;;;;;8.90;4.53;;;;;;;-1.47;100.00;102889.59;5261192;28;20045;-68
2023/04/03 05:18:59;;;;;;;7.17;4.43;;;;;;;-1.49;100.00;102892.06;5261979;28;20383;-68
2023/04/03 05:21:31;;;;;;;10.07;4.63;;;;;;;-1.45;100.00;102892.28;5261854;28;20083;-68
2023/04/03 05:24:03;;;;;;;9.15;4.32;;;;;;;-1.50;100.00;102894.50;5261928;28;20029;-68
2023/04/03 05:26:35;;;;;;;11.00;4.67;;;;;;;-1.45;100.00;102897.41;5261795;28;20036;-68
2023/04/03 05:29:06;;;;;;;6.00;4.37;;;;;;;-1.42;100.00;102906.16;5261840;28;20468;-68
2023/04/03 05:31:38;;;;;;;10.10;4.80;;;;;;;-1.39;100.00;102908.06;5261975;28;20037;-69
2023/04/03 05:34:09;;;;;;;11.47;4.37;;;;;;;-1.37;100.00;102911.59;5261778;28;20057;-69
2023/04/03 05:36:41;;;;;;;9.83;5.50;;;;;;;-1.34;100.00;102910.16;5262177;28;20099;-69
2023/04/03 05:39:12;;;;;;;9.33;4.23;;;;;;;-1.32;100.00;102910.25;5264543;28;20039;-69
2023/04/03 05:41:44;;;;;;;13.77;6.17;;;;;;;-1.27;100.00;102913.13;5265760;28;20029;-69
2023/04/03 05:44:15;;;;;;;11.50;4.93;;;;;;;-1.23;100.00;102912.59;5265784;28;20032;-69
2023/04/03 05:46:47;;;;;;;6.70;4.10;;;;;;;-1.24;100.00;102914.25;5265701;28;20029;-69
2023/04/03 05:49:18;;;;;;;11.03;4.60;;;;;;;-1.17;100.00;102919.00;5265204;28;20157;-69
2023/04/03 05:51:51;;;;;;;8.17;4.13;;;;;;;-1.15;100.00;102919.13;5265271;28;20021;-69
2023/04/03 05:54:29;;;;;;;8.45;4.32;;;;;;;-1.15;100.00;102914.88;5264952;28;20021;-70
2023/04/03 05:57:01;;;;;;;6.50;3.40;;;;;;;-1.06;100.00;102921.41;5265392;28;20025;-69
2023/04/03 05:59:32;;;;;;;7.60;3.67;;;;;;;-1.06;100.00;102918.84;5265029;28;20151;-69
2023/04/03 06:02:04;;;;;;;12.33;4.07;;;;;;;-1.00;100.00;102920.19;5265502;28;20017;-69
2023/04/03 06:04:36;;;;;;;10.13;3.93;;;;;;;-0.93;100.00;102926.63;5265147;28;20131;-68
2023/04/03 06:07:12;;;;;;;9.83;4.00;;;;;;;-0.87;100.00;102921.00;5265313;28;20021;-68
2023/04/03 06:09:43;;;;;;;8.00;3.40;;;;;;;-0.82;100.00;102919.66;5265145;28;20409;-68
2023/04/03 06:12:15;;;;;;;7.13;3.37;;;;;;;-0.76;100.00;102922.63;5265162;28;20050;-68
2023/04/03 06:14:46;;;;;;;9.53;3.30;;;;;;;-0.67;100.00;102919.81;5264856;28;20032;-68
2023/04/03 06:17:18;;;;;;;7.53;3.73;;;;;;;-0.61;100.00;102920.22;5264952;28;20127;-68
2023/04/03 06:19:49;;;;;;;14.87;3.73;;;;;;;-0.52;100.00;102933.66;5264485;28;20472;-68
2023/04/03 06:22:21;;;;;;;7.90;4.13;;;;;;;-0.46;100.00;102935.75;5264992;28;20112;-68
2023/04/03 06:24:52;;;;;;;10.03;3.43;;;;;;;-0.34;100.00;102940.78;5264878;28;20025;-68
2023/04/03 06:27:23;;;;;;;6.67;3.60;;;;;;;-0.27;100.00;102937.88;5264720;28;20029;-69
2023/04/03 06:29:55;;;;;;;9.93;3.50;;;;;;;-0.17;100.00;102942.81;5264926;28;20120;-69
2023/04/03 06:32:26;;;;;;;10.53;3.60;;;;;;;-0.09;100.00;102944.19;5264677;28;20059;-69
2023/04/03 06:34:58;;;;;;;6.83;3.63;;;;;;;0.01;100.00;102949.94;5264798;28;20021;-68
2023/04/03 06:37:30;;;;;;;8.33;3.73;;;;;;;0.09;100.00;102953.88;5264670;28;20460;-68
2023/04/03 06:40:02;;;;;;;10.38;4.22;;;;;;;0.16;100.00;102954.38;5264554;28;20056;-70
2023/04/03 06:42:34;;;;;;;7.35;3.10;;;;;;;0.26;100.00;102949.81;5264463;28;20492;-69
2023/04/03 06:45:07;;;;;;;6.40;2.97;;;;;;;0.35;100.00;102951.31;5264281;28;20104;-69
2023/04/03 06:47:39;;;;;;;9.40;4.00;;;;;;;0.41;100.00;102957.63;5263215;28;20017;-69
2023/04/03 06:50:13;;;;;;;4.73;2.43;;;;;;;0.47;100.00;102952.91;5263421;28;20474;-69
2023/04/03 06:52:45;;;;;;;10.50;3.65;;;;;;;0.61;100.00;102956.31;5264278;28;20100;-69
2023/04/03 06:55:16;;;;;;;8.40;3.10;;;;;;;0.71;100.00;102958.69;5264474;28;20145;-69
2023/04/03 06:57:48;;;;;;;6.27;3.13;;;;;;;0.77;100.00;102956.47;5263947;28;20029;-69
2023/04/03 07:00:20;;;;;;;8.53;3.43;;;;;;;0.85;100.00;102960.44;5264337;28;20325;-69
2023/04/03 07:02:51;;;;;;;8.53;3.40;;;;;;;0.96;100.00;102961.06;5264196;28;20112;-69
2023/04/03 07:05:23;;;;;;;7.13;2.77;;;;;;;1.07;100.00;102964.31;5264300;28;20456;-70
2023/04/03 07:07:55;;;;;;;6.82;2.72;;;;;;;1.19;100.00;102964.16;5264123;28;20052;-69
2023/04/03 07:10:26;;;;;;;9.57;2.77;;;;;;;1.28;100.00;102967.28;5264066;28;20130;-69
2023/04/03 07:12:57;;;;;;;10.13;2.53;;;;;;;1.33;98.96;102959.88;5264062;28;20028;-69
2023/04/03 07:15:29;;;;;;;5.90;2.80;;;;;;;1.45;98.83;102960.63;5263992;28;20052;-69
2023/04/03 07:18:01;;;;;;;6.70;3.27;;;;;;;1.57;98.92;102975.88;5263202;28;20056;-73
2023/04/03 07:20:33;;;;;;;5.77;3.20;;;;;;;1.69;98.58;102968.88;5263885;28;20045;-69
2023/04/03 07:23:04;;;;;;;7.77;2.60;;;;;;;1.81;96.57;102977.28;5263894;28;20024;-69
2023/04/03 07:25:37;;;;;;;9.90;3.53;;;;;;;1.87;94.72;102973.31;5263675;28;20056;-69
2023/04/03 07:28:08;;;;;;;6.15;2.75;;;;;;;1.94;93.65;102975.44;5263711;28;20047;-69
2023/04/03 07:30:47;;;;;;;5.30;2.77;;;;;;;2.04;92.84;102976.88;5263708;28;20471;-69
2023/04/03 07:33:22;;;;;;;4.03;2.38;;;;;;;2.12;93.05;102984.22;5263440;28;20476;-70
2023/04/03 07:35:53;;;;;;;7.55;2.88;;;;;;;2.21;91.36;102986.44;5263504;28;20025;-68
2023/04/03 07:38:25;;;;;;;8.90;2.67;;;;;;;2.38;91.69;102989.94;5263668;28;20036;-69
2023/04/03 07:40:56;;;;;;;5.50;2.13;;;;;;;2.46;91.04;102990.38;5263393;28;20020;-69
2023/04/03 07:43:28;;;;;;;7.40;3.77;;;;;;;2.55;89.65;102989.22;5263450;28;20025;-69
2023/04/03 07:46:00;;;;;;;6.13;3.10;;;;;;;2.69;89.85;102992.56;5263367;28;20024;-68
2023/04/03 07:48:31;;;;;;;8.23;2.90;;;;;;;2.82;89.97;102991.53;5262822;28;20123;-69
2023/04/03 07:51:04;;;;;;;6.83;2.87;;;;;;;2.96;88.33;102993.97;5261943;28;20391;-69
2023/04/03 07:53:35;;;;;;;;;;;;;;;3.02;89.21;102994.31;5263477;28;20028;-68
2023/04/03 07:56:08;;;;;;;5.10;2.70;;;;;;;3.12;86.13;102990.53;5262814;28;19939;-68
2023/04/03 07:58:39;;;;;;;5.57;2.38;;;;;;;3.23;82.94;102987.72;5263100;28;20029;-68
2023/04/03 08:01:11;;;;;;;8.13;2.90;;;;;;;3.45;82.97;102988.84;5262689;28;20032;-68
2023/04/03 08:03:43;;;;;;;7.33;2.53;;;;;;;3.50;81.18;102991.69;5262981;28;20349;-68
2023/04/03 08:06:14;;;;;;;6.17;2.27;;;;;;;3.64;81.69;102998.44;5262865;28;20025;-68
2023/04/03 08:08:47;;;;;;;8.27;2.90;;;;;;;3.67;78.62;102995.09;5262885;28;20460;-68
2023/04/03 08:11:18;;;;;;;6.95;2.60;;;;;;;3.81;80.09;102996.69;5262880;28;20445;-68
2023/04/03 08:13:50;;;;;;;9.30;2.47;;;;;;;4.00;78.06;102990.78;5261498;28;20029;-68
2023/04/03 08:16:23;;;;;;;5.37;2.40;;;;;;;4.00;76.73;102989.06;5262585;28;20036;-68
2023/04/03 08:18:54;;;;;;;4.93;2.17;;;;;;;4.15;77.12;102985.47;5262376;28;20053;-68
2023/04/03 08:21:26;;;;;;;7.10;3.00;;;;;;;4.19;75.26;102998.59;5262688;28;20041;-68
2023/04/03 08:23:57;;;;;;;5.00;2.50;;;;;;;4.22;74.50;102997.88;5262541;28;20068;-68
2023/04/03 08:26:29;;;;;;;4.93;2.77;;;;;;;4.43;75.86;102999.72;5262287;28;20101;-68
2023/04/03 08:29:01;;;;;;;8.03;2.87;;;;;;;4.59;73.27;102997.06;5262579;28;20415;-68
2023/04/03 08:31:33;;;;;;;5.17;2.27;;;;;;;4.61;72.12;102998.03;5262661;28;20029;-68
2023/04/03 08:34:05;;;;;;;6.75;3.08;;;;;;;4.82;73.38;102998.13;5262451;28;20033;-68
2023/04/03 08:36:37;;;;;;;6.47;2.00;;;;;;;4.95;72.45;103002.19;5262553;28;20029;-68
2023/04/03 08:39:08;;;;;;;7.38;2.58;;;;;;;5.17;72.01;103008.31;5262520;28;20079;-68
2023/04/03 08:41:46;;;;;;;6.33;2.20;;;;;;;5.12;67.98;103005.56;5262504;28;20037;-68
2023/04/03 08:44:32;;;;;;;4.28;1.63;;;;;;;5.28;67.25;103004.50;5262473;28;20591;-68
2023/04/03 08:47:18;;;;;;;5.05;2.20;;;;;;;5.42;66.84;103005.13;5262713;28;20025;-68
2023/04/03 08:50:30;;;;;;;6.18;2.00;;;;;;;5.50;67.10;103010.66;5261976;28;20459;-68
2023/04/03 08:53:04;;;;;;;5.75;2.00;;;;;;;5.58;64.96;103015.34;5238868;28;20036;-68
2023/04/03 08:55:55;;;;;;;5.45;2.10;;;;;;;5.66;64.92;103016.53;5259279;28;20044;-68
2023/04/03 08:58:33;;;;;;;6.15;2.63;;;;;;;5.84;60.88;103019.06;5262131;28;20017;-69
2023/04/03 09:01:16;;;;;;;3.95;1.77;;;;;;;5.83;55.94;103006.94;5262178;28;20178;-68
2023/04/03 09:03:47;;;;;;;6.53;1.77;;;;;;;5.95;53.81;103016.03;5262085;28;20094;-68
2023/04/03 09:06:23;;;;;;;7.33;2.50;;;;;;;6.10;53.06;103018.41;5262129;28;20080;-68
2023/04/03 09:09:22;;;;;;;3.55;1.80;;;;;;;6.78;51.06;103014.25;5262219;28;20021;-69
2023/04/03 09:12:39;;;;;;;3.40;1.63;;;;;;;7.59;51.85;103011.16;5294502;28;20032;-69
2023/04/03 09:15:20;;;;;;;3.22;1.90;;;;;;;8.38;46.39;103016.41;5263431;28;20029;-69
2023/04/03 09:18:17;;;;;;;4.53;1.40;;;;;;;8.64;44.33;103014.66;5265862;28;20511;-69
2023/04/03 09:20:51;;;;;;;3.65;1.60;;;;;;;9.15;42.19;103017.91;5265919;28;20029;-69
2023/04/03 09:23:23;;;;;;;2.70;1.63;;;;;;;9.64;42.51;103014.06;5265960;28;20459;-69
2023/04/03 09:26:04;;;;;;;4.40;1.60;;;;;;;9.89;39.45;103007.78;5266092;28;20140;-69
2023/04/03 09:28:39;;;;;;;3.95;2.00;;;;;;;9.98;39.73;103012.31;5266002;28;20021;-69
2023/04/03 09:31:23;;;;;;;3.10;1.42;;;;;;;10.63;41.34;103024.38;5265794;28;20444;-69
2023/04/03 09:34:02;;;;;;;3.30;1.77;;;;;;;10.67;38.27;103020.97;5265935;28;20033;-69
2023/04/03 09:36:46;;;;;;;5.47;2.35;;;;;;;10.93;38.15;103011.09;5264516;28;20021;-69
2023/04/03 09:39:23;;;;;;;3.05;1.48;;;;;;;11.11;36.55;103014.09;5265846;28;20029;-69
2023/04/03 09:41:56;;;;;;;3.08;1.50;;;;;;;10.63;32.83;103006.13;5265690;28;20025;-69
2023/04/03 09:44:35;;;;;;;2.78;1.45;;;;;;;10.85;34.57;103004.84;5265559;28;20112;-69
2023/04/03 09:47:22;;;;;;;3.42;1.50;;;;;;;11.41;37.09;103004.25;5265537;28;20112;-69
2023/04/03 09:50:12;;;;;;;3.55;1.50;;;;;;;11.85;33.76;102991.13;5264975;28;20037;-68
2023/04/03 09:52:46;;;;;;;2.60;1.35;;;;;;;11.64;31.87;102994.22;5264986;28;20455;-68
2023/04/03 09:55:27;;;;;;;3.17;1.55;;;;;;;12.18;34.60;102997.78;5265235;28;20524;-68
2023/04/03 09:58:04;;;;;;;4.45;1.85;;;;;;;12.21;31.69;102984.78;5265478;28;20021;-69
2023/04/03 10:00:39;;;;;;;2.75;1.38;;;;;;;12.66;30.59;102980.19;5265236;28;20448;-69
2023/04/03 10:03:30;;;;;;;2.33;1.50;;;;;;;12.92;30.02;102976.16;5265440;28;20135;-69
2023/04/03 10:06:03;;;;;;;3.08;1.50;;;;;;;12.66;28.86;102970.59;5265415;28;20045;-68
2023/04/03 10:08:35;;;;;;;1.65;1.05;;;;;;;12.70;27.72;102981.97;5265149;28;20029;-69
2023/04/03 10:11:12;;;;;;;2.93;1.20;;;;;;;12.67;28.87;102985.44;5265212;28;20032;-68
2023/04/03 10:13:56;;;;;;;3.03;1.27;;;;;;;13.13;28.22;102972.06;5263596;28;20025;-69
2023/04/03 10:16:44;;;;;;;3.90;1.10;;;;;;;13.44;29.13;102972.41;5264897;28;20017;-69
2023/04/03 10:19:34;;;;;;;2.72;1.10;;;;;;;13.93;29.19;102978.13;5264498;28;20086;-69
2023/04/03 10:22:19;;;;;;;2.38;1.27;;;;;;;13.41;27.63;102986.38;5264938;28;20029;-69
2023/04/03 10:25:04;;;;;;;3.25;1.15;;;;;;;13.98;28.29;102981.66;5263463;28;20032;-69
2023/04/03 10:27:51;;;;;;;2.03;1.08;;;;;;;14.44;28.00;102995.97;5264929;28;20151;-69
2023/04/03 10:30:46;;;;;;;4.70;1.35;;;;;;;14.07;28.33;102973.00;5264908;28;20052;-69
2023/04/03 10:33:19;;;;;;;2.25;1.10;;;;;;;13.81;26.88;102971.06;5264511;28;20103;-69
2023/04/03 10:36:13;;;;;;;2.88;1.13;;;;;;;15.07;26.33;102947.31;5264840;28;20036;-69
2023/04/03 10:38:53;;;;;;;2.65;1.40;;;;;;;14.49;27.02;102955.78;5264139;28;20063;-69
2023/04/03 10:41:42;;;;;;;3.60;1.40;;;;;;;15.15;26.55;102949.97;5264621;28;20483;-69
2023/04/03 10:44:47;;;;;;;2.13;1.10;;;;;;;15.63;26.18;102948.31;5263326;28;20032;-69
2023/04/03 10:47:30;;;;;;;3.17;1.15;;;;;;;15.99;23.77;102946.56;5264297;28;20052;-69
2023/04/03 10:50:11;;;;;;;2.63;1.23;;;;;;;16.80;24.82;102946.34;5263688;28;20032;-69
2023/04/03 10:53:00;;;;;;;3.83;1.67;;;;;;;16.38;24.80;102936.84;5264251;28;20028;-69
2023/04/03 10:55:38;;;;;;;2.75;1.10;;;;;;;17.26;23.30;102923.31;5264310;28;20083;-69
2023/04/03 10:58:20;;;;;;;4.20;1.35;;;;;;;16.81;23.55;102924.38;5264352;28;20032;-68
2023/04/03 11:00:56;;;;;;;2.40;1.38;;;;;;;17.07;23.55;102922.53;5264281;28;20384;-68
2023/04/03 11:03:40;;;;;;;1.50;0.88;;;;;;;17.62;23.24;102931.81;5264184;28;20056;-68
2023/04/03 11:06:15;;;;;;;4.68;1.88;;;;;;;16.95;22.01;102920.84;5264082;28;20040;-68
2023/04/03 11:08:57;;;;;;;3.47;1.30;;;;;;;17.63;23.03;102916.88;5263865;28;20025;-68
2023/04/03 11:11:38;;;;;;;3.60;1.13;;;;;;;18.15;22.65;102911.13;5263974;28;20059;-69
2023/04/03 11:14:34;;;;;;;2.60;1.25;;;;;;;17.70;21.82;102915.94;5263803;28;20348;-68
2023/04/03 11:17:17;;;;;;;1.02;0.88;;;;;;;17.09;21.55;102918.13;5263514;28;20059;-70
2023/04/03 11:20:10;;;;;;;1.95;1.10;;;;;;;18.35;22.37;102912.66;5263276;28;20021;-69
2023/04/03 11:22:45;;;;;;;4.03;1.52;;;;;;;18.51;22.03;102921.28;5263749;28;20033;-69
2023/04/03 11:25:24;;;;;;;1.27;1.10;;;;;;;18.26;21.02;102908.38;5263348;28;20079;-69
2023/04/03 11:27:58;;;;;;;1.63;1.20;;;;;;;18.88;21.64;102915.56;5263612;28;20017;-69
2023/04/03 11:30:48;;;;;;;2.45;1.17;;;;;;;19.43;21.56;102898.00;5263591;28;20025;-69
2023/04/03 11:33:48;;;;;;;4.47;1.38;;;;;;;20.31;21.02;102889.38;5263594;28;20348;-69
2023/04/03 11:36:39;;;;;;;2.92;1.30;;;;;;;20.75;20.17;102898.22;5260400;28;20033;-69
2023/04/03 11:39:30;;;;;;;2.72;1.08;;;;;;;20.46;18.26;102887.31;5263389;28;20394;-69
2023/04/03 11:42:28;;;;;;;1.92;1.10;;;;;;;20.56;17.69;102880.94;5263350;28;20075;-69
2023/04/03 11:45:26;;;;;;;3.17;1.27;;;;;;;20.17;18.08;102879.06;5263314;28;20487;-69
2023/04/03 11:48:01;;;;;;;3.60;1.40;;;;;;;19.85;17.43;102890.25;5262867;28;20020;-69
2023/04/03 11:50:42;;;;;;;2.67;1.35;;;;;;;20.36;17.37;102887.50;5262763;28;20035;-69
2023/04/03 11:53:13;;;;;;;3.08;1.52;;;;;;;20.75;15.79;102882.31;5263088;28;20021;-69
2023/04/03 11:55:53;;;;;;;2.27;1.30;;;;;;;20.88;15.69;102869.63;5263094;28;20043;-69
2023/04/03 11:58:31;;;;;;;2.95;1.40;;;;;;;20.62;16.26;102872.81;5263223;28;20116;-69